createdAt,value
2022-10-11T00:01:20.760Z,3.03
2022-10-11T00:06:22.404Z,3.08
2022-10-11T00:11:23.936Z,3.97
2022-10-11T00:16:25.489Z,4.07
2022-10-11T00:21:27.172Z,2.97
2022-10-11T00:26:29.307Z,3.50
2022-10-11T00:31:35.373Z,3.70
2022-10-11T00:36:37.493Z,3.10
2022-10-11T00:41:39.075Z,3.63
2022-10-11T00:46:44.478Z,3.85
2022-10-11T00:51:51.217Z,3.70
2022-10-11T00:57:03.611Z,3.40
2022-10-11T01:02:06.720Z,4.20
2022-10-11T01:07:09.572Z,3.97
2022-10-11T01:12:23.071Z,3.90
2022-10-11T01:18:22.046Z,3.92
2022-10-11T01:23:35.584Z,4.80
2022-10-11T01:29:11.780Z,4.28
2022-10-11T01:34:34.158Z,4.22
2022-10-11T01:39:52.113Z,4.22
2022-10-11T01:44:55.252Z,5.18
2022-10-11T01:49:59.673Z,5.03
2022-10-11T01:55:23.647Z,4.97
2022-10-11T02:00:31.890Z,4.60
2022-10-11T02:06:10.420Z,4.53
2022-10-11T02:11:31.537Z,5.60
2022-10-11T02:16:43.665Z,5.93
2022-10-11T02:21:50.810Z,6.25
2022-10-11T02:26:55.683Z,6.57
2022-10-11T02:31:59.457Z,6.93
2022-10-11T02:37:11.953Z,7.32
2022-10-11T02:42:26.890Z,7.20
2022-10-11T02:47:31.006Z,7.05
2022-10-11T02:52:32.545Z,6.72
2022-10-11T02:57:34.156Z,6.57
2022-10-11T03:02:35.765Z,5.70
2022-10-11T03:07:37.442Z,6.60
2022-10-11T03:12:38.985Z,7.85
2022-10-11T03:17:40.528Z,7.88
2022-10-11T03:22:42.035Z,9.50
2022-10-11T03:27:43.597Z,9.35
2022-10-11T03:32:45.536Z,9.60
2022-10-11T03:37:47.099Z,10.63
2022-10-11T03:42:48.631Z,8.85
2022-10-11T03:47:50.200Z,10.23
2022-10-11T03:52:51.756Z,9.65
2022-10-11T03:57:53.438Z,9.43
2022-10-11T04:02:57.324Z,11.48
2022-10-11T04:07:58.843Z,14.93
2022-10-11T04:13:00.397Z,15.85
2022-10-11T04:18:01.916Z,16.23
2022-10-11T04:23:03.534Z,16.67
2022-10-11T04:28:05.218Z,17.70
2022-10-11T04:33:06.853Z,18.48
2022-10-11T04:38:08.496Z,18.38
2022-10-11T04:43:10.073Z,21.23
2022-10-11T04:48:11.680Z,20.85
2022-10-11T04:53:13.205Z,22.65
2022-10-11T04:58:14.763Z,21.15
2022-10-11T05:03:16.279Z,21.13
2022-10-11T05:08:17.836Z,21.23
2022-10-11T05:13:19.353Z,20.73
2022-10-11T05:18:21.411Z,20.90
2022-10-11T05:23:22.935Z,21.35
2022-10-11T05:28:24.755Z,24.02
2022-10-11T05:33:26.653Z,23.83
2022-10-11T05:38:28.628Z,24.42
2022-10-11T05:43:33.035Z,25.48
2022-10-11T05:48:34.556Z,25.83
2022-10-11T05:53:37.975Z,27.40
2022-10-11T05:58:39.689Z,24.85
2022-10-11T06:03:41.216Z,25.70
2022-10-11T06:08:43.061Z,25.85
2022-10-11T06:13:44.810Z,23.40
2022-10-11T06:18:46.486Z,22.15
2022-10-11T06:23:50.397Z,20.65
2022-10-11T06:28:52.837Z,19.00
2022-10-11T06:33:54.411Z,17.15
2022-10-11T06:38:56.142Z,14.10
2022-10-11T06:43:57.995Z,13.65
2022-10-11T06:48:59.525Z,11.95
2022-10-11T06:54:02.175Z,10.50
2022-10-11T06:59:03.899Z,9.02
2022-10-11T07:04:05.602Z,8.40
2022-10-11T07:09:07.830Z,6.75
2022-10-11T07:14:09.609Z,5.03
2022-10-11T07:19:11.260Z,5.45
2022-10-11T07:24:12.785Z,4.20
2022-10-11T07:29:14.385Z,3.20
2022-10-11T07:34:16.060Z,2.80
2022-10-11T07:39:17.641Z,2.78
2022-10-11T07:44:19.156Z,2.92
2022-10-11T07:49:20.711Z,2.53
2022-10-11T07:54:49.970Z,2.67
2022-10-11T07:59:51.604Z,3.00
2022-10-11T08:04:53.154Z,2.92
2022-10-11T08:09:54.827Z,2.83
2022-10-11T08:14:56.652Z,2.63
2022-10-11T08:19:58.207Z,2.80
2022-10-11T08:24:59.805Z,3.35
2022-10-11T08:30:01.498Z,2.33
2022-10-11T08:35:03.267Z,2.90
2022-10-11T08:40:05.945Z,2.90
2022-10-11T08:45:11.905Z,2.70
2022-10-11T08:50:23.867Z,2.65
2022-10-11T08:55:45.798Z,3.22
2022-10-11T09:00:50.205Z,2.85
2022-10-11T09:06:12.567Z,4.05
2022-10-11T09:17:08.469Z,3.00
2022-10-11T09:22:24.739Z,3.40
2022-10-11T09:28:03.275Z,2.92
2022-10-11T09:33:19.121Z,2.88
2022-10-11T09:38:46.410Z,2.75
2022-10-11T09:43:50.973Z,2.75
2022-10-11T09:48:56.212Z,3.13
2022-10-11T09:54:04.828Z,2.85
2022-10-11T09:59:24.061Z,3.33
2022-10-11T10:04:25.624Z,4.60
2022-10-11T10:09:30.926Z,3.92
2022-10-11T10:14:32.497Z,5.05
2022-10-11T10:19:44.913Z,4.15
2022-10-11T10:24:48.877Z,4.05
2022-10-11T10:30:16.230Z,4.07
2022-10-11T10:35:29.670Z,4.00
2022-10-11T10:40:39.451Z,4.40
2022-10-11T10:45:59.843Z,4.18
2022-10-11T10:51:16.786Z,4.15
2022-10-11T10:56:46.032Z,5.28
2022-10-11T11:02:21.493Z,4.37
2022-10-11T11:07:33.001Z,4.47
2022-10-11T11:13:12.116Z,5.30
2022-10-11T11:18:36.502Z,4.00
2022-10-11T11:23:59.188Z,4.53
2022-10-11T11:29:08.906Z,4.88
2022-10-11T11:34:28.493Z,4.25
2022-10-11T11:39:34.832Z,5.15
2022-10-11T11:44:41.396Z,5.05
2022-10-11T11:50:03.825Z,5.07
2022-10-11T11:55:16.820Z,4.78
2022-10-11T12:00:22.126Z,4.97
2022-10-11T12:05:29.021Z,4.95
2022-10-11T12:10:51.956Z,4.88
2022-10-11T12:16:11.872Z,5.07
2022-10-11T12:26:27.273Z,5.32
2022-10-11T12:31:32.357Z,4.10
2022-10-11T12:36:46.964Z,4.82
2022-10-11T12:41:56.091Z,4.35
2022-10-11T12:46:57.893Z,5.37
2022-10-11T12:52:17.783Z,4.90
2022-10-11T13:02:44.082Z,5.10
2022-10-11T13:07:46.573Z,5.70
2022-10-11T13:12:53.129Z,5.13
2022-10-11T13:17:59.622Z,5.30
2022-10-11T13:23:02.944Z,5.50
2022-10-11T13:28:08.875Z,5.88
2022-10-11T13:33:23.580Z,5.25
2022-10-11T13:38:34.205Z,6.47
2022-10-11T13:43:36.606Z,6.47
2022-10-11T13:48:43.956Z,6.13
2022-10-11T13:54:13.144Z,6.25
2022-10-11T14:04:19.877Z,6.22
2022-10-11T14:09:30.490Z,5.90
2022-10-11T14:14:35.655Z,6.57
2022-10-11T14:19:37.536Z,5.40
2022-10-11T14:24:39.055Z,6.10
2022-10-11T14:30:00.341Z,5.88
2022-10-11T14:35:06.877Z,6.25
2022-10-11T14:40:15.315Z,6.43
2022-10-11T14:45:17.699Z,5.57
2022-10-11T14:51:01.018Z,5.60
2022-10-11T14:56:02.842Z,5.70
2022-10-11T15:01:04.669Z,5.30
2022-10-11T15:06:07.792Z,5.80
2022-10-11T15:11:11.705Z,5.10
2022-10-11T15:16:15.819Z,4.63
2022-10-11T15:21:23.094Z,4.93
2022-10-11T15:26:27.198Z,4.65
2022-10-11T15:31:28.748Z,4.90
2022-10-11T15:36:30.671Z,5.20
2022-10-11T15:41:32.200Z,5.18
2022-10-11T15:46:33.709Z,6.47
2022-10-11T15:51:35.198Z,6.25
2022-10-11T15:56:37.860Z,8.00
2022-10-11T16:01:39.762Z,6.85
2022-10-11T16:06:41.384Z,6.97
2022-10-11T16:11:45.054Z,6.35
2022-10-11T16:16:46.616Z,6.45
2022-10-11T16:21:48.142Z,6.50
2022-10-11T16:26:49.643Z,6.38
2022-10-11T16:31:51.230Z,6.50
2022-10-11T16:36:52.819Z,3.80
2022-10-11T16:41:54.369Z,3.10
2022-10-11T16:46:56.013Z,3.08
2022-10-11T16:52:03.791Z,2.50
2022-10-11T16:57:05.448Z,2.80
2022-10-11T17:02:09.781Z,2.30
2022-10-11T17:07:14.967Z,2.47
2022-10-11T17:12:20.222Z,2.65
2022-10-11T17:17:21.739Z,2.13
2022-10-11T17:22:23.369Z,2.58
2022-10-11T17:27:24.921Z,2.40
2022-10-11T17:32:26.440Z,2.90
2022-10-11T17:37:28.021Z,3.58
2022-10-11T17:42:29.535Z,2.92
2022-10-11T17:47:31.059Z,3.35
2022-10-11T17:52:32.599Z,2.80
2022-10-11T17:57:34.132Z,3.03
2022-10-11T18:02:35.717Z,2.90
2022-10-11T18:07:37.235Z,2.92
2022-10-11T18:12:38.823Z,2.80
2022-10-11T18:17:40.327Z,3.33
2022-10-11T18:22:41.871Z,5.40
2022-10-11T18:27:43.375Z,5.07
2022-10-11T18:32:45.016Z,5.38
2022-10-11T18:37:46.590Z,5.05
2022-10-11T18:42:48.144Z,5.20
2022-10-11T18:47:51.069Z,4.53
2022-10-11T18:52:52.719Z,5.13
2022-10-11T18:57:54.356Z,5.43
2022-10-11T19:02:56.159Z,4.78
2022-10-11T19:07:57.724Z,4.38
2022-10-11T19:12:59.454Z,4.80
2022-10-11T19:18:00.968Z,3.95
2022-10-11T19:23:02.485Z,3.88
2022-10-11T19:28:04.159Z,3.03
2022-10-11T19:33:05.749Z,3.60
2022-10-11T19:38:07.299Z,3.33
2022-10-11T19:43:08.827Z,3.58
2022-10-11T19:48:11.475Z,4.13
2022-10-11T19:53:15.144Z,5.05
2022-10-11T19:58:17.363Z,4.72
2022-10-11T20:03:18.907Z,5.47
2022-10-11T20:08:20.431Z,4.40
2022-10-11T20:13:22.034Z,4.90
2022-10-11T20:18:24.536Z,4.93
2022-10-11T20:23:27.729Z,4.50
2022-10-11T20:28:31.675Z,5.28
2022-10-11T20:33:33.612Z,7.28
2022-10-11T20:38:37.206Z,8.00
2022-10-11T20:43:41.040Z,8.45
2022-10-11T20:48:46.741Z,11.27
2022-10-11T20:53:49.396Z,10.63
2022-10-11T20:58:52.851Z,10.80
2022-10-11T21:03:56.878Z,10.82
2022-10-11T21:08:59.648Z,12.98
2022-10-11T21:14:05.838Z,13.20
2022-10-11T21:19:07.441Z,12.27
2022-10-11T21:24:09.299Z,11.23
2022-10-11T21:29:10.868Z,10.98
2022-10-11T21:34:12.421Z,9.80
2022-10-11T21:39:14.016Z,9.13
2022-10-11T21:44:15.784Z,8.60
2022-10-11T21:49:18.106Z,9.00
2022-10-11T21:54:19.637Z,8.40
2022-10-11T21:59:21.203Z,8.35
2022-10-11T22:04:22.747Z,7.95
2022-10-11T22:09:24.383Z,8.50
2022-10-11T22:14:26.807Z,7.82
2022-10-11T22:19:28.316Z,9.40
2022-10-11T22:24:29.971Z,9.30
2022-10-11T22:29:34.174Z,10.00
2022-10-11T22:34:36.067Z,11.90
2022-10-11T22:39:37.600Z,12.40
2022-10-11T22:44:39.128Z,12.68
2022-10-11T22:49:40.638Z,15.00
2022-10-11T22:54:42.304Z,15.02
2022-10-11T22:59:43.837Z,15.73
2022-10-11T23:04:45.377Z,15.93
2022-10-11T23:09:46.954Z,14.98
2022-10-11T23:14:48.487Z,17.27
2022-10-11T23:19:50.049Z,16.70
2022-10-11T23:24:51.639Z,16.38
2022-10-11T23:29:53.264Z,17.77
2022-10-11T23:34:54.856Z,17.42
2022-10-11T23:39:56.376Z,16.88
2022-10-11T23:44:57.897Z,16.23
2022-10-11T23:49:59.430Z,15.23
2022-10-11T23:55:00.940Z,16.15
